sensor_id;sensor_type;location;lat;lon;timestamp;temperature;humidity
11511;DHT22;5812;48.864;9.190;2023-03-23T00:00:05;13.20;99.90
11511;DHT22;5812;48.864;9.190;2023-03-23T00:02:31;13.20;99.90
11511;DHT22;5812;48.864;9.190;2023-03-23T00:05:04;13.30;99.90
11511;DHT22;5812;48.864;9.190;2023-03-23T00:07:30;13.50;99.90
11511;DHT22;5812;48.864;9.190;2023-03-23T00:09:56;13.70;99.90
11511;DHT22;5812;48.864;9.190;2023-03-23T00:12:27;13.70;99.90
11511;DHT22;5812;48.864;9.190;2023-03-23T00:15:08;13.90;99.90
11511;DHT22;5812;48.864;9.190;2023-03-23T00:17:38;13.90;99.90
11511;DHT22;5812;48.864;9.190;2023-03-23T00:20:06;14.00;99.90
11511;DHT22;5812;48.864;9.190;2023-03-23T00:22:32;14.10;99.90
11511;DHT22;5812;48.864;9.190;2023-03-23T00:25:03;14.10;99.90
11511;DHT22;5812;48.864;9.190;2023-03-23T00:27:29;14.20;99.90
11511;DHT22;5812;48.864;9.190;2023-03-23T00:29:54;14.30;99.90
11511;DHT22;5812;48.864;9.190;2023-03-23T00:32:22;14.30;99.90
11511;DHT22;5812;48.864;9.190;2023-03-23T00:34:53;14.30;99.90
11511;DHT22;5812;48.864;9.190;2023-03-23T00:37:19;14.30;99.90
11511;DHT22;5812;48.864;9.190;2023-03-23T00:39:45;14.40;99.90
11511;DHT22;5812;48.864;9.190;2023-03-23T00:42:15;14.40;99.90
11511;DHT22;5812;48.864;9.190;2023-03-23T00:44:42;14.30;99.90
11511;DHT22;5812;48.864;9.190;2023-03-23T00:47:09;14.30;99.90
11511;DHT22;5812;48.864;9.190;2023-03-23T00:49:35;14.30;99.90
11511;DHT22;5812;48.864;9.190;2023-03-23T00:52:02;14.30;99.90
11511;DHT22;5812;48.864;9.190;2023-03-23T00:54:28;14.30;99.90
11511;DHT22;5812;48.864;9.190;2023-03-23T00:56:54;14.40;99.90
11511;DHT22;5812;48.864;9.190;2023-03-23T00:59:20;14.30;99.90
11511;DHT22;5812;48.864;9.190;2023-03-23T01:01:46;14.30;99.90
11511;DHT22;5812;48.864;9.190;2023-03-23T01:04:12;14.20;99.90
11511;DHT22;5812;48.864;9.190;2023-03-23T01:06:41;14.30;99.90
11511;DHT22;5812;48.864;9.190;2023-03-23T01:09:09;14.20;99.90
11511;DHT22;5812;48.864;9.190;2023-03-23T01:11:35;14.20;99.90
11511;DHT22;5812;48.864;9.190;2023-03-23T01:14:01;14.10;99.90
11511;DHT22;5812;48.864;9.190;2023-03-23T01:16:27;14.10;99.90
11511;DHT22;5812;48.864;9.190;2023-03-23T01:18:53;14.10;99.90
11511;DHT22;5812;48.864;9.190;2023-03-23T01:21:20;14.20;99.90
11511;DHT22;5812;48.864;9.190;2023-03-23T01:23:46;14.20;99.90
11511;DHT22;5812;48.864;9.190;2023-03-23T01:26:21;14.20;99.90
11511;DHT22;5812;48.864;9.190;2023-03-23T01:28:47;14.10;99.90
11511;DHT22;5812;48.864;9.190;2023-03-23T01:31:16;14.10;99.90
11511;DHT22;5812;48.864;9.190;2023-03-23T01:33:43;14.10;99.90
11511;DHT22;5812;48.864;9.190;2023-03-23T01:36:15;14.00;99.90
11511;DHT22;5812;48.864;9.190;2023-03-23T01:38:43;14.00;99.90
11511;DHT22;5812;48.864;9.190;2023-03-23T01:41:09;14.00;99.90
11511;DHT22;5812;48.864;9.190;2023-03-23T01:43:35;13.90;99.90
11511;DHT22;5812;48.864;9.190;2023-03-23T01:46:01;13.90;99.90
11511;DHT22;5812;48.864;9.190;2023-03-23T01:48:31;13.90;99.90
11511;DHT22;5812;48.864;9.190;2023-03-23T01:51:08;13.90;99.90
11511;DHT22;5812;48.864;9.190;2023-03-23T01:53:48;13.90;99.90
11511;DHT22;5812;48.864;9.190;2023-03-23T01:56:20;13.70;99.90
11511;DHT22;5812;48.864;9.190;2023-03-23T01:58:51;13.60;99.90
11511;DHT22;5812;48.864;9.190;2023-03-23T02:01:17;13.50;99.90
11511;DHT22;5812;48.864;9.190;2023-03-23T02:03:45;13.50;99.90
11511;DHT22;5812;48.864;9.190;2023-03-23T02:06:12;13.50;99.90
11511;DHT22;5812;48.864;9.190;2023-03-23T02:08:38;13.50;99.90
11511;DHT22;5812;48.864;9.190;2023-03-23T02:11:21;13.50;99.90
11511;DHT22;5812;48.864;9.190;2023-03-23T02:13:48;13.40;99.90
11511;DHT22;5812;48.864;9.190;2023-03-23T02:16:59;13.50;99.90
11511;DHT22;5812;48.864;9.190;2023-03-23T02:19:49;13.40;99.90
11511;DHT22;5812;48.864;9.190;2023-03-23T02:28:19;13.50;99.90
11511;DHT22;5812;48.864;9.190;2023-03-23T02:34:20;13.40;99.90
11511;DHT22;5812;48.864;9.190;2023-03-23T02:36:58;13.40;99.90
11511;DHT22;5812;48.864;9.190;2023-03-23T02:39:30;13.40;99.90
11511;DHT22;5812;48.864;9.190;2023-03-23T02:42:05;13.50;99.90
11511;DHT22;5812;48.864;9.190;2023-03-23T02:44:32;13.50;99.90
11511;DHT22;5812;48.864;9.190;2023-03-23T02:47:00;13.40;99.90
11511;DHT22;5812;48.864;9.190;2023-03-23T02:49:29;13.40;99.90
11511;DHT22;5812;48.864;9.190;2023-03-23T02:51:59;13.30;99.90
11511;DHT22;5812;48.864;9.190;2023-03-23T02:54:26;13.20;99.90
11511;DHT22;5812;48.864;9.190;2023-03-23T02:56:53;13.20;99.90
11511;DHT22;5812;48.864;9.190;2023-03-23T02:59:19;13.10;99.90
11511;DHT22;5812;48.864;9.190;2023-03-23T03:01:51;13.00;99.90
11511;DHT22;5812;48.864;9.190;2023-03-23T03:04:20;12.80;99.90
11511;DHT22;5812;48.864;9.190;2023-03-23T03:09:53;12.80;99.90
11511;DHT22;5812;48.864;9.190;2023-03-23T03:15:05;12.90;99.90
11511;DHT22;5812;48.864;9.190;2023-03-23T03:17:35;12.80;99.90
11511;DHT22;5812;48.864;9.190;2023-03-23T03:20:06;12.90;99.90
11511;DHT22;5812;48.864;9.190;2023-03-23T03:22:38;12.80;99.90
11511;DHT22;5812;48.864;9.190;2023-03-23T03:25:05;12.90;99.90
11511;DHT22;5812;48.864;9.190;2023-03-23T03:27:32;12.80;99.90
11511;DHT22;5812;48.864;9.190;2023-03-23T03:29:59;12.90;99.90
11511;DHT22;5812;48.864;9.190;2023-03-23T03:32:34;12.90;99.90
11511;DHT22;5812;48.864;9.190;2023-03-23T03:35:02;12.90;99.90
11511;DHT22;5812;48.864;9.190;2023-03-23T03:37:33;12.90;99.90
11511;DHT22;5812;48.864;9.190;2023-03-23T03:39:59;12.80;99.90
11511;DHT22;5812;48.864;9.190;2023-03-23T03:42:25;12.90;99.90
11511;DHT22;5812;48.864;9.190;2023-03-23T03:44:51;12.90;99.90
11511;DHT22;5812;48.864;9.190;2023-03-23T03:47:16;12.90;99.90
11511;DHT22;5812;48.864;9.190;2023-03-23T03:49:42;12.90;99.90
11511;DHT22;5812;48.864;9.190;2023-03-23T03:52:08;12.90;99.90
11511;DHT22;5812;48.864;9.190;2023-03-23T03:54:33;12.80;99.90
11511;DHT22;5812;48.864;9.190;2023-03-23T03:56:59;12.80;99.90
11511;DHT22;5812;48.864;9.190;2023-03-23T03:59:24;12.80;99.90
11511;DHT22;5812;48.864;9.190;2023-03-23T04:01:51;12.80;99.90
11511;DHT22;5812;48.864;9.190;2023-03-23T04:04:19;12.80;99.90
11511;DHT22;5812;48.864;9.190;2023-03-23T04:06:45;12.90;99.90
11511;DHT22;5812;48.864;9.190;2023-03-23T04:09:10;12.90;99.90
11511;DHT22;5812;48.864;9.190;2023-03-23T04:11:37;13.00;99.90
11511;DHT22;5812;48.864;9.190;2023-03-23T04:14:02;13.10;99.90
11511;DHT22;5812;48.864;9.190;2023-03-23T04:16:28;13.30;99.90
11511;DHT22;5812;48.864;9.190;2023-03-23T04:18:55;13.40;99.90
11511;DHT22;5812;48.864;9.190;2023-03-23T04:21:21;13.40;99.90
11511;DHT22;5812;48.864;9.190;2023-03-23T04:23:47;13.60;99.90
11511;DHT22;5812;48.864;9.190;2023-03-23T04:26:12;13.60;99.90
11511;DHT22;5812;48.864;9.190;2023-03-23T04:28:39;13.60;99.90
11511;DHT22;5812;48.864;9.190;2023-03-23T04:31:06;13.60;99.90
11511;DHT22;5812;48.864;9.190;2023-03-23T04:33:32;13.60;99.90
11511;DHT22;5812;48.864;9.190;2023-03-23T04:36:00;13.60;99.90
11511;DHT22;5812;48.864;9.190;2023-03-23T04:38:27;13.70;99.90
11511;DHT22;5812;48.864;9.190;2023-03-23T04:40:53;13.80;99.90
11511;DHT22;5812;48.864;9.190;2023-03-23T04:43:21;13.80;99.90
11511;DHT22;5812;48.864;9.190;2023-03-23T04:45:55;13.90;99.90
11511;DHT22;5812;48.864;9.190;2023-03-23T04:48:22;13.90;99.90
11511;DHT22;5812;48.864;9.190;2023-03-23T04:50:48;13.90;99.90
11511;DHT22;5812;48.864;9.190;2023-03-23T04:53:16;14.00;99.90
11511;DHT22;5812;48.864;9.190;2023-03-23T04:55:43;13.90;99.90
11511;DHT22;5812;48.864;9.190;2023-03-23T04:58:09;13.90;99.90
11511;DHT22;5812;48.864;9.190;2023-03-23T05:00:38;13.90;99.90
11511;DHT22;5812;48.864;9.190;2023-03-23T05:03:04;13.90;99.90
11511;DHT22;5812;48.864;9.190;2023-03-23T05:05:29;13.80;99.90
11511;DHT22;5812;48.864;9.190;2023-03-23T05:07:56;13.50;99.90
11511;DHT22;5812;48.864;9.190;2023-03-23T05:10:22;13.30;99.90
11511;DHT22;5812;48.864;9.190;2023-03-23T05:12:47;13.20;99.90
11511;DHT22;5812;48.864;9.190;2023-03-23T05:15:15;13.10;99.90
11511;DHT22;5812;48.864;9.190;2023-03-23T05:17:41;13.10;99.90
11511;DHT22;5812;48.864;9.190;2023-03-23T05:20:14;13.10;99.90
11511;DHT22;5812;48.864;9.190;2023-03-23T05:22:43;13.00;99.90
11511;DHT22;5812;48.864;9.190;2023-03-23T05:25:15;12.90;99.90
11511;DHT22;5812;48.864;9.190;2023-03-23T05:27:41;12.90;99.90
11511;DHT22;5812;48.864;9.190;2023-03-23T05:30:14;13.20;99.90
11511;DHT22;5812;48.864;9.190;2023-03-23T05:32:45;13.40;99.90
11511;DHT22;5812;48.864;9.190;2023-03-23T05:35:11;13.40;99.90
11511;DHT22;5812;48.864;9.190;2023-03-23T05:37:38;13.50;99.90
11511;DHT22;5812;48.864;9.190;2023-03-23T05:40:05;13.90;99.90
11511;DHT22;5812;48.864;9.190;2023-03-23T05:42:37;14.00;99.90
11511;DHT22;5812;48.864;9.190;2023-03-23T05:45:04;14.00;99.90
11511;DHT22;5812;48.864;9.190;2023-03-23T05:47:31;14.20;99.90
11511;DHT22;5812;48.864;9.190;2023-03-23T05:49:56;14.30;99.90
11511;DHT22;5812;48.864;9.190;2023-03-23T05:52:23;14.40;99.90
11511;DHT22;5812;48.864;9.190;2023-03-23T05:54:52;14.40;99.90
11511;DHT22;5812;48.864;9.190;2023-03-23T05:57:18;14.50;99.90
11511;DHT22;5812;48.864;9.190;2023-03-23T05:59:44;14.40;99.90
11511;DHT22;5812;48.864;9.190;2023-03-23T06:02:11;14.50;99.90
11511;DHT22;5812;48.864;9.190;2023-03-23T06:04:36;14.60;99.90
11511;DHT22;5812;48.864;9.190;2023-03-23T06:07:03;14.50;99.90
11511;DHT22;5812;48.864;9.190;2023-03-23T06:09:29;14.60;99.90
11511;DHT22;5812;48.864;9.190;2023-03-23T06:11:56;14.60;99.90
11511;DHT22;5812;48.864;9.190;2023-03-23T06:14:21;14.60;99.90
11511;DHT22;5812;48.864;9.190;2023-03-23T06:16:47;14.60;99.90
11511;DHT22;5812;48.864;9.190;2023-03-23T06:19:13;14.50;99.90
11511;DHT22;5812;48.864;9.190;2023-03-23T06:21:40;14.60;99.90
11511;DHT22;5812;48.864;9.190;2023-03-23T06:24:05;14.60;99.90
11511;DHT22;5812;48.864;9.190;2023-03-23T06:26:35;14.60;99.90
11511;DHT22;5812;48.864;9.190;2023-03-23T06:29:02;14.60;99.90
11511;DHT22;5812;48.864;9.190;2023-03-23T06:31:36;14.50;99.90
11511;DHT22;5812;48.864;9.190;2023-03-23T06:34:02;14.40;99.90
11511;DHT22;5812;48.864;9.190;2023-03-23T06:36:28;14.50;99.90
11511;DHT22;5812;48.864;9.190;2023-03-23T06:38:54;14.60;99.90
11511;DHT22;5812;48.864;9.190;2023-03-23T06:41:20;14.60;99.90
11511;DHT22;5812;48.864;9.190;2023-03-23T06:43:46;14.60;99.90
11511;DHT22;5812;48.864;9.190;2023-03-23T06:46:15;14.50;99.90
11511;DHT22;5812;48.864;9.190;2023-03-23T06:48:41;14.60;99.90
11511;DHT22;5812;48.864;9.190;2023-03-23T06:51:06;14.70;99.90
11511;DHT22;5812;48.864;9.190;2023-03-23T06:53:32;14.80;99.90
11511;DHT22;5812;48.864;9.190;2023-03-23T06:55:59;14.90;99.90
11511;DHT22;5812;48.864;9.190;2023-03-23T06:58:25;15.10;99.90
11511;DHT22;5812;48.864;9.190;2023-03-23T07:00:57;15.10;99.90
11511;DHT22;5812;48.864;9.190;2023-03-23T07:03:23;15.10;99.90
11511;DHT22;5812;48.864;9.190;2023-03-23T07:05:49;15.00;99.90
11511;DHT22;5812;48.864;9.190;2023-03-23T07:08:15;15.00;99.90
11511;DHT22;5812;48.864;9.190;2023-03-23T07:10:41;14.90;99.90
11511;DHT22;5812;48.864;9.190;2023-03-23T07:13:07;14.90;99.90
11511;DHT22;5812;48.864;9.190;2023-03-23T07:15:32;14.90;99.90
11511;DHT22;5812;48.864;9.190;2023-03-23T07:17:58;14.90;99.90
11511;DHT22;5812;48.864;9.190;2023-03-23T07:20:24;14.90;99.90
11511;DHT22;5812;48.864;9.190;2023-03-23T07:22:50;14.90;99.90
11511;DHT22;5812;48.864;9.190;2023-03-23T07:25:17;14.90;99.90
11511;DHT22;5812;48.864;9.190;2023-03-23T07:27:44;14.80;99.90
11511;DHT22;5812;48.864;9.190;2023-03-23T07:30:11;14.70;99.90
11511;DHT22;5812;48.864;9.190;2023-03-23T07:32:37;14.70;99.90
11511;DHT22;5812;48.864;9.190;2023-03-23T07:35:03;14.70;99.90
11511;DHT22;5812;48.864;9.190;2023-03-23T07:37:29;14.80;99.90
11511;DHT22;5812;48.864;9.190;2023-03-23T07:39:55;14.80;99.90
11511;DHT22;5812;48.864;9.190;2023-03-23T07:42:21;14.80;99.90
11511;DHT22;5812;48.864;9.190;2023-03-23T07:44:46;14.80;99.90
11511;DHT22;5812;48.864;9.190;2023-03-23T07:47:15;14.90;99.90
11511;DHT22;5812;48.864;9.190;2023-03-23T07:49:43;15.00;99.90
11511;DHT22;5812;48.864;9.190;2023-03-23T07:52:08;15.20;99.90
11511;DHT22;5812;48.864;9.190;2023-03-23T07:54:36;15.40;99.90
11511;DHT22;5812;48.864;9.190;2023-03-23T07:57:02;15.60;99.90
11511;DHT22;5812;48.864;9.190;2023-03-23T07:59:28;15.80;99.90
11511;DHT22;5812;48.864;9.190;2023-03-23T08:01:53;15.70;99.90
11511;DHT22;5812;48.864;9.190;2023-03-23T08:04:19;15.60;99.90
11511;DHT22;5812;48.864;9.190;2023-03-23T08:06:44;15.50;99.90
11511;DHT22;5812;48.864;9.190;2023-03-23T08:09:10;15.40;99.90
11511;DHT22;5812;48.864;9.190;2023-03-23T08:11:37;15.40;99.90
11511;DHT22;5812;48.864;9.190;2023-03-23T08:14:03;15.30;99.90
11511;DHT22;5812;48.864;9.190;2023-03-23T08:16:29;15.30;99.90
11511;DHT22;5812;48.864;9.190;2023-03-23T08:18:55;15.30;99.90
11511;DHT22;5812;48.864;9.190;2023-03-23T08:21:22;15.30;99.90
11511;DHT22;5812;48.864;9.190;2023-03-23T08:23:48;15.40;99.90
11511;DHT22;5812;48.864;9.190;2023-03-23T08:26:13;15.40;99.90
11511;DHT22;5812;48.864;9.190;2023-03-23T08:28:40;15.40;99.90
11511;DHT22;5812;48.864;9.190;2023-03-23T08:31:11;15.30;99.90
11511;DHT22;5812;48.864;9.190;2023-03-23T08:33:37;15.50;99.90
11511;DHT22;5812;48.864;9.190;2023-03-23T08:36:04;15.50;99.90
11511;DHT22;5812;48.864;9.190;2023-03-23T08:38:30;15.50;99.90
11511;DHT22;5812;48.864;9.190;2023-03-23T08:41:00;15.50;99.90
11511;DHT22;5812;48.864;9.190;2023-03-23T08:43:28;15.40;99.90
11511;DHT22;5812;48.864;9.190;2023-03-23T08:45:54;15.40;99.90
11511;DHT22;5812;48.864;9.190;2023-03-23T08:48:20;15.40;99.90
11511;DHT22;5812;48.864;9.190;2023-03-23T08:50:46;15.50;99.90
11511;DHT22;5812;48.864;9.190;2023-03-23T08:53:12;15.50;99.90
11511;DHT22;5812;48.864;9.190;2023-03-23T08:55:38;15.50;99.90
11511;DHT22;5812;48.864;9.190;2023-03-23T08:58:05;15.50;99.90
11511;DHT22;5812;48.864;9.190;2023-03-23T09:00:31;15.40;99.90
11511;DHT22;5812;48.864;9.190;2023-03-23T09:02:56;15.40;99.90
11511;DHT22;5812;48.864;9.190;2023-03-23T09:05:24;15.30;99.90
11511;DHT22;5812;48.864;9.190;2023-03-23T09:07:53;15.20;99.90
11511;DHT22;5812;48.864;9.190;2023-03-23T09:10:19;15.20;99.90
11511;DHT22;5812;48.864;9.190;2023-03-23T09:12:46;15.20;99.90
11511;DHT22;5812;48.864;9.190;2023-03-23T09:15:15;15.20;99.90
11511;DHT22;5812;48.864;9.190;2023-03-23T09:17:43;15.20;99.90
11511;DHT22;5812;48.864;9.190;2023-03-23T09:20:11;15.30;99.90
11511;DHT22;5812;48.864;9.190;2023-03-23T09:22:41;15.30;99.90
11511;DHT22;5812;48.864;9.190;2023-03-23T09:25:08;15.30;99.90
11511;DHT22;5812;48.864;9.190;2023-03-23T09:27:35;15.30;99.90
11511;DHT22;5812;48.864;9.190;2023-03-23T09:30:04;15.50;99.90
11511;DHT22;5812;48.864;9.190;2023-03-23T09:32:35;15.50;99.90
11511;DHT22;5812;48.864;9.190;2023-03-23T09:35:02;15.50;99.90
11511;DHT22;5812;48.864;9.190;2023-03-23T09:37:28;15.50;99.90
11511;DHT22;5812;48.864;9.190;2023-03-23T09:39:55;15.50;99.90
11511;DHT22;5812;48.864;9.190;2023-03-23T09:42:49;15.70;99.90
11511;DHT22;5812;48.864;9.190;2023-03-23T09:48:53;15.70;99.90
11511;DHT22;5812;48.864;9.190;2023-03-23T09:51:44;15.60;99.90
11511;DHT22;5812;48.864;9.190;2023-03-23T09:54:38;15.60;99.90
11511;DHT22;5812;48.864;9.190;2023-03-23T09:57:13;15.80;99.90
11511;DHT22;5812;48.864;9.190;2023-03-23T09:59:57;15.80;99.90
11511;DHT22;5812;48.864;9.190;2023-03-23T10:05:39;15.80;99.90
11511;DHT22;5812;48.864;9.190;2023-03-23T10:08:11;15.70;99.90
11511;DHT22;5812;48.864;9.190;2023-03-23T10:11:03;15.70;99.90
11511;DHT22;5812;48.864;9.190;2023-03-23T10:16:25;15.70;99.90
11511;DHT22;5812;48.864;9.190;2023-03-23T10:19:11;15.70;99.90
11511;DHT22;5812;48.864;9.190;2023-03-23T10:21:44;15.90;99.90
11511;DHT22;5812;48.864;9.190;2023-03-23T10:24:15;15.90;99.90
11511;DHT22;5812;48.864;9.190;2023-03-23T10:27:13;15.90;99.90
11511;DHT22;5812;48.864;9.190;2023-03-23T10:29:50;15.90;99.90
11511;DHT22;5812;48.864;9.190;2023-03-23T10:32:37;15.90;99.90
11511;DHT22;5812;48.864;9.190;2023-03-23T10:35:10;16.40;99.90
11511;DHT22;5812;48.864;9.190;2023-03-23T10:37:41;16.60;99.90
11511;DHT22;5812;48.864;9.190;2023-03-23T10:40:32;16.80;99.90
11511;DHT22;5812;48.864;9.190;2023-03-23T10:42:59;16.80;99.90
11511;DHT22;5812;48.864;9.190;2023-03-23T10:45:27;16.50;99.90
11511;DHT22;5812;48.864;9.190;2023-03-23T10:48:16;16.10;99.90
11511;DHT22;5812;48.864;9.190;2023-03-23T10:50:44;15.90;99.90
11511;DHT22;5812;48.864;9.190;2023-03-23T10:53:24;15.60;99.90
11511;DHT22;5812;48.864;9.190;2023-03-23T10:55:53;15.70;99.90
11511;DHT22;5812;48.864;9.190;2023-03-23T10:58:32;16.00;99.90
11511;DHT22;5812;48.864;9.190;2023-03-23T11:00:59;16.00;99.90
11511;DHT22;5812;48.864;9.190;2023-03-23T11:03:43;16.40;99.90
11511;DHT22;5812;48.864;9.190;2023-03-23T11:06:12;16.40;99.90
11511;DHT22;5812;48.864;9.190;2023-03-23T11:09:02;16.40;99.90
11511;DHT22;5812;48.864;9.190;2023-03-23T11:11:37;16.20;99.90
11511;DHT22;5812;48.864;9.190;2023-03-23T11:14:29;16.00;99.90
11511;DHT22;5812;48.864;9.190;2023-03-23T11:17:04;16.20;99.90
11511;DHT22;5812;48.864;9.190;2023-03-23T11:19:34;16.20;99.90
11511;DHT22;5812;48.864;9.190;2023-03-23T11:24:43;15.90;99.90
11511;DHT22;5812;48.864;9.190;2023-03-23T11:27:10;16.00;99.90
11511;DHT22;5812;48.864;9.190;2023-03-23T11:29:58;15.90;99.90
11511;DHT22;5812;48.864;9.190;2023-03-23T11:32:28;15.90;99.90
11511;DHT22;5812;48.864;9.190;2023-03-23T11:34:57;15.90;99.90
11511;DHT22;5812;48.864;9.190;2023-03-23T11:37:34;16.20;99.90
11511;DHT22;5812;48.864;9.190;2023-03-23T11:42:45;16.60;99.90
11511;DHT22;5812;48.864;9.190;2023-03-23T11:45:24;16.70;99.90
11511;DHT22;5812;48.864;9.190;2023-03-23T11:50:29;16.70;99.90
11511;DHT22;5812;48.864;9.190;2023-03-23T11:53:08;16.60;99.90
11511;DHT22;5812;48.864;9.190;2023-03-23T11:55:50;16.80;99.90
11511;DHT22;5812;48.864;9.190;2023-03-23T11:58:19;17.10;99.90
11511;DHT22;5812;48.864;9.190;2023-03-23T12:01:00;17.20;99.90
11511;DHT22;5812;48.864;9.190;2023-03-23T12:15:38;16.90;99.90
11511;DHT22;5812;48.864;9.190;2023-03-23T12:26:17;17.50;99.90
11511;DHT22;5812;48.864;9.190;2023-03-23T12:31:46;16.90;99.90
11511;DHT22;5812;48.864;9.190;2023-03-23T12:39:59;16.90;99.90
11511;DHT22;5812;48.864;9.190;2023-03-23T12:43:13;16.80;99.90
11511;DHT22;5812;48.864;9.190;2023-03-23T12:48:36;17.00;99.90
11511;DHT22;5812;48.864;9.190;2023-03-23T12:59:19;17.10;99.90
11511;DHT22;5812;48.864;9.190;2023-03-23T13:01:52;17.00;99.90
11511;DHT22;5812;48.864;9.190;2023-03-23T13:04:27;17.10;99.90
11511;DHT22;5812;48.864;9.190;2023-03-23T13:06:57;16.90;99.90
11511;DHT22;5812;48.864;9.190;2023-03-23T13:12:03;16.80;99.90
11511;DHT22;5812;48.864;9.190;2023-03-23T13:15:10;16.80;99.90
11511;DHT22;5812;48.864;9.190;2023-03-23T13:23:45;17.10;99.90
11511;DHT22;5812;48.864;9.190;2023-03-23T13:26:19;17.00;99.90
11511;DHT22;5812;48.864;9.190;2023-03-23T13:29:00;16.90;99.90
11511;DHT22;5812;48.864;9.190;2023-03-23T13:31:34;17.10;99.90
11511;DHT22;5812;48.864;9.190;2023-03-23T13:34:10;17.10;99.90
11511;DHT22;5812;48.864;9.190;2023-03-23T13:36:40;17.20;99.90
11511;DHT22;5812;48.864;9.190;2023-03-23T13:39:21;17.30;99.90
11511;DHT22;5812;48.864;9.190;2023-03-23T13:42:01;17.20;99.90
11511;DHT22;5812;48.864;9.190;2023-03-23T13:44:39;17.20;99.90
11511;DHT22;5812;48.864;9.190;2023-03-23T13:47:21;17.10;99.90
11511;DHT22;5812;48.864;9.190;2023-03-23T13:49:57;16.80;99.90
11511;DHT22;5812;48.864;9.190;2023-03-23T13:57:52;16.80;99.90
11511;DHT22;5812;48.864;9.190;2023-03-23T14:06:22;17.00;99.90
11511;DHT22;5812;48.864;9.190;2023-03-23T14:08:52;17.10;99.90
11511;DHT22;5812;48.864;9.190;2023-03-23T14:11:22;17.10;99.90
11511;DHT22;5812;48.864;9.190;2023-03-23T14:14:04;17.10;99.90
11511;DHT22;5812;48.864;9.190;2023-03-23T14:16:42;17.20;99.90
11511;DHT22;5812;48.864;9.190;2023-03-23T14:19:22;17.30;99.90
11511;DHT22;5812;48.864;9.190;2023-03-23T14:22:32;17.40;99.90
11511;DHT22;5812;48.864;9.190;2023-03-23T14:24:40;17.40;99.90
11511;DHT22;5812;48.864;9.190;2023-03-23T14:27:15;17.50;99.90
11511;DHT22;5812;48.864;9.190;2023-03-23T14:29:42;17.60;99.90
11511;DHT22;5812;48.864;9.190;2023-03-23T14:32:19;17.70;99.90
11511;DHT22;5812;48.864;9.190;2023-03-23T14:34:51;17.60;99.90
11511;DHT22;5812;48.864;9.190;2023-03-23T14:37:17;17.60;99.90
11511;DHT22;5812;48.864;9.190;2023-03-23T14:39:48;17.70;99.90
11511;DHT22;5812;48.864;9.190;2023-03-23T14:42:17;17.70;99.90
11511;DHT22;5812;48.864;9.190;2023-03-23T14:44:47;17.60;99.90
11511;DHT22;5812;48.864;9.190;2023-03-23T14:47:18;17.60;99.90
11511;DHT22;5812;48.864;9.190;2023-03-23T14:49:45;17.60;99.90
11511;DHT22;5812;48.864;9.190;2023-03-23T14:52:16;17.60;99.90
11511;DHT22;5812;48.864;9.190;2023-03-23T14:54:44;17.50;99.90
11511;DHT22;5812;48.864;9.190;2023-03-23T14:57:15;17.50;99.90
11511;DHT22;5812;48.864;9.190;2023-03-23T14:59:43;17.50;99.90
11511;DHT22;5812;48.864;9.190;2023-03-23T15:02:32;17.50;99.90
11511;DHT22;5812;48.864;9.190;2023-03-23T15:05:14;17.60;99.90
11511;DHT22;5812;48.864;9.190;2023-03-23T15:07:43;17.70;99.90
11511;DHT22;5812;48.864;9.190;2023-03-23T15:10:22;17.70;99.90
11511;DHT22;5812;48.864;9.190;2023-03-23T15:12:49;17.80;99.90
11511;DHT22;5812;48.864;9.190;2023-03-23T15:15:25;17.80;99.90
11511;DHT22;5812;48.864;9.190;2023-03-23T15:17:52;17.70;99.90
11511;DHT22;5812;48.864;9.190;2023-03-23T15:20:47;17.70;99.90
11511;DHT22;5812;48.864;9.190;2023-03-23T15:23:16;17.70;99.90
11511;DHT22;5812;48.864;9.190;2023-03-23T15:25:50;17.60;99.90
11511;DHT22;5812;48.864;9.190;2023-03-23T15:28:21;17.50;99.90
11511;DHT22;5812;48.864;9.190;2023-03-23T15:30:51;17.50;99.90
11511;DHT22;5812;48.864;9.190;2023-03-23T15:33:17;17.50;99.90
11511;DHT22;5812;48.864;9.190;2023-03-23T15:35:49;17.50;99.90
11511;DHT22;5812;48.864;9.190;2023-03-23T15:38:20;17.40;99.90
11511;DHT22;5812;48.864;9.190;2023-03-23T15:40:50;17.40;99.90
11511;DHT22;5812;48.864;9.190;2023-03-23T15:43:26;17.40;99.90
11511;DHT22;5812;48.864;9.190;2023-03-23T15:48:22;17.30;99.90
11511;DHT22;5812;48.864;9.190;2023-03-23T15:50:49;17.40;99.90
11511;DHT22;5812;48.864;9.190;2023-03-23T15:53:28;17.30;99.90
11511;DHT22;5812;48.864;9.190;2023-03-23T15:55:55;17.40;99.90
11511;DHT22;5812;48.864;9.190;2023-03-23T15:58:23;17.40;99.90
11511;DHT22;5812;48.864;9.190;2023-03-23T16:00:49;17.40;99.90
11511;DHT22;5812;48.864;9.190;2023-03-23T16:03:29;17.40;99.90
11511;DHT22;5812;48.864;9.190;2023-03-23T16:05:57;17.40;99.90
11511;DHT22;5812;48.864;9.190;2023-03-23T16:08:28;17.30;99.90
11511;DHT22;5812;48.864;9.190;2023-03-23T16:10:54;17.30;99.90
11511;DHT22;5812;48.864;9.190;2023-03-23T16:13:19;17.30;99.90
11511;DHT22;5812;48.864;9.190;2023-03-23T16:15:46;17.30;99.90
11511;DHT22;5812;48.864;9.190;2023-03-23T16:18:20;17.20;99.90
11511;DHT22;5812;48.864;9.190;2023-03-23T16:20:49;17.10;99.90
11511;DHT22;5812;48.864;9.190;2023-03-23T16:23:16;17.20;99.90
11511;DHT22;5812;48.864;9.190;2023-03-23T16:25:41;17.20;99.90
11511;DHT22;5812;48.864;9.190;2023-03-23T16:28:11;17.20;99.90
11511;DHT22;5812;48.864;9.190;2023-03-23T16:30:37;17.10;99.90
11511;DHT22;5812;48.864;9.190;2023-03-23T16:33:03;17.10;99.90
11511;DHT22;5812;48.864;9.190;2023-03-23T16:35:28;16.90;99.90
11511;DHT22;5812;48.864;9.190;2023-03-23T16:37:56;16.70;99.90
11511;DHT22;5812;48.864;9.190;2023-03-23T16:40:22;16.60;99.90
11511;DHT22;5812;48.864;9.190;2023-03-23T16:42:48;16.60;99.90
11511;DHT22;5812;48.864;9.190;2023-03-23T16:45:16;16.40;99.90
11511;DHT22;5812;48.864;9.190;2023-03-23T16:47:43;16.40;99.90
11511;DHT22;5812;48.864;9.190;2023-03-23T16:50:13;16.30;99.90
11511;DHT22;5812;48.864;9.190;2023-03-23T16:52:39;16.30;99.90
11511;DHT22;5812;48.864;9.190;2023-03-23T16:55:06;16.30;99.90
11511;DHT22;5812;48.864;9.190;2023-03-23T16:57:33;16.30;99.90
11511;DHT22;5812;48.864;9.190;2023-03-23T17:00:06;16.30;99.90
11511;DHT22;5812;48.864;9.190;2023-03-23T17:02:33;16.30;99.90
11511;DHT22;5812;48.864;9.190;2023-03-23T17:04:58;16.30;99.90
11511;DHT22;5812;48.864;9.190;2023-03-23T17:07:25;16.40;99.90
11511;DHT22;5812;48.864;9.190;2023-03-23T17:09:51;16.30;99.90
11511;DHT22;5812;48.864;9.190;2023-03-23T17:12:16;16.30;99.90
11511;DHT22;5812;48.864;9.190;2023-03-23T17:14:42;16.40;99.90
11511;DHT22;5812;48.864;9.190;2023-03-23T17:17:08;16.30;99.90
11511;DHT22;5812;48.864;9.190;2023-03-23T17:19:34;16.30;99.90
11511;DHT22;5812;48.864;9.190;2023-03-23T17:22:00;16.30;99.90
11511;DHT22;5812;48.864;9.190;2023-03-23T17:24:26;16.30;99.90
11511;DHT22;5812;48.864;9.190;2023-03-23T17:27:02;16.20;99.90
11511;DHT22;5812;48.864;9.190;2023-03-23T17:29:27;16.20;99.90
11511;DHT22;5812;48.864;9.190;2023-03-23T17:31:53;16.20;99.90
11511;DHT22;5812;48.864;9.190;2023-03-23T17:34:19;16.10;99.90
11511;DHT22;5812;48.864;9.190;2023-03-23T17:36:44;16.10;99.90